Arthur, Illinois
Current Conditions -  °F | °C
As of 7:53 PM on Sunday 21 Dec 2014 (Local Time) from KMTO Reporting Station
Clear Clear  
Wind Chill: -3°   Ceiling: Unl
Heat Index:   Visibility: 8mi
Dew Point: -2°   Wind: 9mph
Humidity: 79%   Direction: 130°SE
Pressure: 30.06"   Gusts: NA
Location:  39.71°N, 88.47°W
Report Text: KMTO 220153Z AUTO 13008KT 8SM CLR 01/M02 A3006 RMK AO2 SLP185 T00111022
Loading
Personal Weather Stations






























Interactive Weather Map New forecast layout! Learn more

10-Day Weather Forecast

Advertisements
Track Severe Weather on mobile